createdAt,value
2022-11-28T00:02:03.861Z,6.63
2022-11-28T00:07:06.640Z,6.30
2022-11-28T00:12:08.563Z,6.57
2022-11-28T00:17:10.811Z,5.70
2022-11-28T00:22:12.822Z,5.97
2022-11-28T00:27:18.239Z,6.03
2022-11-28T00:32:51.819Z,6.57
2022-11-28T00:37:55.718Z,6.57
2022-11-28T00:42:57.722Z,6.83
2022-11-28T00:47:59.898Z,7.10
2022-11-28T00:53:01.646Z,7.30
2022-11-28T01:04:07.950Z,6.50
2022-11-28T01:09:51.151Z,7.97
2022-11-28T01:14:58.160Z,7.37
2022-11-28T01:20:08.228Z,6.03
2022-11-28T01:25:12.305Z,6.53
2022-11-28T01:30:42.614Z,7.60
2022-11-28T01:36:09.259Z,7.37
2022-11-28T01:47:02.278Z,6.77
2022-11-28T01:52:58.348Z,7.27
2022-11-28T01:57:55.080Z,7.50
2022-11-28T02:03:05.847Z,8.43
2022-11-28T02:08:11.522Z,7.83
2022-11-28T02:31:45.574Z,7.50
2022-11-28T02:37:09.001Z,8.13
2022-11-28T02:42:44.341Z,7.47
2022-11-28T02:48:10.785Z,8.70
2022-11-28T02:59:02.170Z,8.23
2022-11-28T03:04:41.947Z,7.47
2022-11-28T03:09:44.768Z,8.07
2022-11-28T03:15:08.536Z,8.67
2022-11-28T03:20:14.669Z,7.90
2022-11-28T03:25:44.675Z,8.20
2022-11-28T03:31:11.665Z,8.97
2022-11-28T03:36:37.807Z,8.00
2022-11-28T04:00:45.175Z,8.57
2022-11-28T04:06:15.212Z,8.17
2022-11-28T04:11:35.503Z,8.87
2022-11-28T04:17:13.224Z,9.37
2022-11-28T04:22:43.503Z,9.50
2022-11-28T04:28:01.893Z,9.83
2022-11-28T04:33:11.037Z,10.37
2022-11-28T04:38:34.562Z,9.70
2022-11-28T04:43:43.642Z,9.67
2022-11-28T04:49:01.917Z,9.63
2022-11-28T04:54:42.755Z,10.30
2022-11-28T05:00:11.796Z,9.93
2022-11-28T05:06:06.838Z,10.07
2022-11-28T05:11:08.382Z,11.23
2022-11-28T05:16:13.191Z,10.70
2022-11-28T05:27:05.416Z,10.63
2022-11-28T05:32:07.446Z,12.60
2022-11-28T05:37:11.862Z,10.53
2022-11-28T05:43:03.505Z,10.97
2022-11-28T05:48:59.277Z,11.47
2022-11-28T05:53:37.341Z,11.27
2022-11-28T05:58:40.465Z,10.63
2022-11-28T06:03:43.013Z,10.63
2022-11-28T06:08:49.960Z,10.97
2022-11-28T06:14:13.661Z,13.90
2022-11-28T06:19:51.358Z,13.20
2022-11-28T06:24:53.202Z,13.00
2022-11-28T06:29:59.103Z,11.80
2022-11-28T06:35:00.875Z,13.40
2022-11-28T06:40:02.995Z,12.07
2022-11-28T06:45:07.929Z,13.43
2022-11-28T06:50:13.049Z,11.43
2022-11-28T06:55:31.881Z,12.23
2022-11-28T07:00:42.381Z,14.20
2022-11-28T07:05:44.187Z,11.43
2022-11-28T07:10:48.087Z,12.00
2022-11-28T07:15:52.520Z,11.83
2022-11-28T07:20:59.222Z,11.27
2022-11-28T07:26:03.299Z,12.47
2022-11-28T07:31:33.877Z,11.77
2022-11-28T07:41:59.385Z,13.87
2022-11-28T07:47:01.282Z,13.67
2022-11-28T07:52:03.242Z,14.53
2022-11-28T07:57:12.650Z,14.57
2022-11-28T08:02:15.173Z,13.97
2022-11-28T08:07:46.892Z,13.53
2022-11-28T08:18:14.555Z,13.20
2022-11-28T08:23:16.386Z,11.67
2022-11-28T08:28:18.525Z,11.70
2022-11-28T08:33:31.774Z,12.60
2022-11-28T08:38:33.966Z,11.80
2022-11-28T08:43:38.949Z,13.13
2022-11-28T08:48:42.053Z,11.40
2022-11-28T08:53:48.649Z,14.50
2022-11-28T08:58:51.278Z,11.30
2022-11-28T09:03:54.421Z,13.03
2022-11-28T09:08:56.329Z,12.73
2022-11-28T09:14:49.417Z,14.67
2022-11-28T09:19:53.685Z,14.07
2022-11-28T09:24:55.720Z,12.53
2022-11-28T09:29:57.506Z,12.53
2022-11-28T09:35:03.544Z,13.10
2022-11-28T09:40:13.133Z,12.20
2022-11-28T09:45:33.597Z,12.77
2022-11-28T09:50:55.106Z,12.53
2022-11-28T09:56:12.801Z,11.57
2022-11-28T10:08:10.684Z,12.53
2022-11-28T10:14:06.607Z,11.20
2022-11-28T10:20:04.504Z,13.77
2022-11-28T10:30:38.951Z,15.33
2022-11-28T10:36:13.285Z,15.37
2022-11-28T10:41:39.724Z,13.73
2022-11-28T10:47:31.884Z,16.23
2022-11-28T10:52:54.984Z,18.07
2022-11-28T10:58:46.044Z,16.13
2022-11-28T11:03:58.857Z,14.70
2022-11-28T11:09:00.708Z,15.97
2022-11-28T11:14:11.187Z,15.80
2022-11-28T11:19:36.596Z,17.20
2022-11-28T11:24:41.475Z,14.30
2022-11-28T11:30:06.732Z,14.43
2022-11-28T11:35:38.603Z,14.00
2022-11-28T11:40:42.820Z,10.60
2022-11-28T11:45:47.280Z,10.97
2022-11-28T11:51:39.243Z,12.43
2022-11-28T11:57:35.261Z,10.97
2022-11-28T12:03:03.149Z,11.07
2022-11-28T12:08:33.876Z,11.57
2022-11-28T12:13:55.040Z,11.33
2022-11-28T12:18:56.932Z,12.00
2022-11-28T12:30:15.635Z,12.17
2022-11-28T12:35:45.721Z,11.87
2022-11-28T12:41:17.102Z,11.23
2022-11-28T12:46:45.450Z,12.33
2022-11-28T12:51:50.845Z,12.80
2022-11-28T12:57:15.694Z,11.90
2022-11-28T13:02:48.560Z,12.33
2022-11-28T13:08:15.116Z,14.40
2022-11-28T13:18:46.277Z,16.80
2022-11-28T13:24:45.396Z,15.10
2022-11-28T13:29:49.779Z,14.40
2022-11-28T13:34:53.294Z,14.77
2022-11-28T13:46:10.032Z,15.70
2022-11-28T13:51:18.751Z,15.37
2022-11-28T14:02:48.755Z,14.43
2022-11-28T14:07:50.735Z,14.60
2022-11-28T14:19:11.273Z,14.30
2022-11-28T14:24:57.922Z,14.77
2022-11-28T14:30:02.808Z,13.90
2022-11-28T14:35:06.692Z,15.73
2022-11-28T14:40:59.626Z,14.33
2022-11-28T14:57:53.054Z,15.67
2022-11-28T15:14:47.100Z,18.07
2022-11-28T15:19:53.264Z,18.77
2022-11-28T15:24:55.114Z,17.07
2022-11-28T15:30:19.759Z,17.27
2022-11-28T15:35:49.550Z,14.57
2022-11-28T15:40:53.073Z,16.53
2022-11-28T15:45:59.992Z,17.53
2022-11-28T15:51:05.179Z,16.77
2022-11-28T15:56:34.884Z,17.37
2022-11-28T16:06:59.816Z,16.97
2022-11-28T16:12:05.624Z,17.77
2022-11-28T16:18:05.857Z,19.20
2022-11-28T16:22:46.504Z,19.67
2022-11-28T16:39:15.425Z,19.37
2022-11-28T16:44:34.973Z,18.40
2022-11-28T16:50:15.550Z,20.10
2022-11-28T16:55:33.624Z,26.27
2022-11-28T17:01:03.258Z,22.83
2022-11-28T17:06:05.340Z,22.07
2022-11-28T17:12:01.505Z,22.67
2022-11-28T17:17:47.564Z,23.57
2022-11-28T17:22:56.401Z,22.70
2022-11-28T17:27:58.261Z,23.53
2022-11-28T17:33:12.405Z,21.83
2022-11-28T17:38:14.444Z,22.93
2022-11-28T17:43:21.591Z,22.37
2022-11-28T17:48:45.273Z,23.80
2022-11-28T17:53:47.143Z,24.53
2022-11-28T17:58:49.020Z,24.10
2022-11-28T18:03:54.934Z,29.80
2022-11-28T18:09:01.267Z,27.90
2022-11-28T18:14:06.277Z,25.63
2022-11-28T18:19:08.093Z,28.20
2022-11-28T18:29:59.495Z,25.97
2022-11-28T18:35:05.712Z,29.13
2022-11-28T18:40:34.406Z,28.20
2022-11-28T18:46:04.581Z,25.03
2022-11-28T18:52:03.673Z,29.90
2022-11-28T18:57:32.677Z,30.70
2022-11-28T19:02:45.041Z,33.03
2022-11-28T19:47:07.426Z,25.47
2022-11-28T20:04:56.760Z,27.70
2022-11-28T20:10:49.111Z,28.37
2022-11-28T20:16:30.004Z,26.40
2022-11-28T20:45:49.580Z,25.20
2022-11-28T20:57:20.207Z,24.73
2022-11-28T21:02:20.620Z,24.43
2022-11-28T21:07:24.016Z,25.47
2022-11-28T21:12:26.326Z,26.93
2022-11-28T21:17:29.982Z,25.60
2022-11-28T21:22:31.700Z,23.30
2022-11-28T21:27:35.252Z,25.67
2022-11-28T21:32:36.966Z,26.20
2022-11-28T21:37:39.007Z,24.90
2022-11-28T21:42:40.779Z,25.47
2022-11-28T21:47:42.716Z,22.80
2022-11-28T21:52:44.519Z,27.20
2022-11-28T21:57:46.161Z,28.67
2022-11-28T22:02:49.448Z,28.20
2022-11-28T22:07:51.220Z,26.30
2022-11-28T22:12:53.587Z,28.53
2022-11-28T22:17:55.295Z,29.17
2022-11-28T22:23:00.018Z,28.63
2022-11-28T22:28:02.744Z,26.87
2022-11-28T22:33:07.912Z,27.37
2022-11-28T22:38:09.592Z,28.17
2022-11-28T22:43:19.797Z,27.80
2022-11-28T22:48:24.662Z,26.53
2022-11-28T22:53:56.229Z,29.77
2022-11-28T22:58:59.663Z,26.50
2022-11-28T23:04:01.463Z,28.37
2022-11-28T23:09:10.900Z,29.33
2022-11-28T23:14:24.590Z,28.77
2022-11-28T23:19:39.889Z,31.47
2022-11-28T23:25:08.682Z,29.87
2022-11-28T23:30:13.937Z,30.23
2022-11-28T23:35:20.719Z,28.93
2022-11-28T23:40:22.372Z,27.50
2022-11-28T23:45:25.512Z,28.73
2022-11-28T23:50:31.898Z,29.90
2022-11-28T23:55:44.402Z,28.03
